Aérodrome :
LOGIN :

S'inscrire | Disclaimer

   EN    FR    IT 

 










Légende :    VFR   VFR Marginal   IFR   IFR Intensif   IFR Très Intensif
Visi : 
Plafond : 
>= 8 km
>= 3000ft
5 à 8 km
1000 à 3000 ft
1500m à 5 km
500 à 1000 ft
800 à 1500m
200 à 500 ft
< 800m
< 200 ft
Symboles :   Orages  Brouillard  Fortes neiges  Fortes précipitations  Vent > 20 kt
SIGMETs :   Divers  Orages  Givrage  Turbulence  Onde Orograph.  Cendres Volcan.






- Altitude de l'aérodrome : 1197 ft
- Code IATA : SPM


ETAD - Spangdahlem Ab

DERNIER METAR :
  • 260431Z 22003KT 9999 SCT006 OVC018 09/09 A3016 RMK AO2A ALSTG ESTMD SLPNO TSNO $

METARs EXPIRÉS :
  • 260356Z 20007KT 9999 OVC019 09/09 A3016 RMK AO2A SLPNO ALSTG ESTMD T00920089 TSNO $
  • 260341Z COR AUTO 21007KT 9999 OVC017 09/09 3016 RMK AO2 ALSTG ESTMD SLPNO TSNO $ COR 0348
  • 260326Z AUTO 23005KT 9999 SCT006 OVC014 09/09 M RMK AO2 CIG 012 RWY23 SLPNO TSNO $
  • 260311Z AUTO 23005KT 9999 BKN006 OVC012 09/09 M RMK AO2 CIG 004 RWY23 SLPNO TSNO $
  • 260256Z AUTO 24006KT 9999 BKN005 OVC010 09/08 M RMK AO2 CIG 004 RWY23 SLPNO T00900084 TSNO $
  • 260226Z AUTO 24004KT 9999 OVC005 09/08 M RMK AO2 SLPNO TSNO $
  • 260211Z AUTO 24003KT 9999 OVC006 09/08 M RMK AO2 SLPNO TSNO $
  • 260156Z AUTO 25004KT 9999 OVC007 09/08 M RMK AO2 SLPNO T00910083 TSNO $

TAF TAF ETAD
Valide du 26 à 04h jusqu'au 27 à 10h UTC


260400Z 2604/2710 22009KT 9999 OVC015 QNH3015INS
BECMG 2608/2609 24010G15KT 9999 BKN020 OVC030 QNH3020INS
BECMG 2617/2618 24006KT 9999 BKN015 OVC025 QNH3025INS
BECMG 2621/2622 23005KT 8000 BR BKN008 QNH3026INS
BECMG 2700/2701 VRB04KT 5000 BR OVC005 QNH3027INS
BECMG 2708/2709 22004KT 9999 NSW OVC015 QNH3029INS TX13/2613Z TN09/2604Z



MET'MAP, la Météo Aéronautique d'un coup d'oeil ! - Copyright ORBIFLY Décembre 2007 - Disclaimer

ORBIFLY MET'MAP TEAM :

Programmation & Développement : Alexandra Zaïnal
Sur une idée originale de : Baudouin d'Aumeries
Assistance à la programmation : Marc-Olivier Méhu
Soutien technique & logistique : Manuel Goepfert

Contact : metmap@orbifly.com




SOURCES & CREDITS :

   NOAA